サンクトペテルブルク の空港の天気 - METARとTAF

プルコヴォ空港(サンクトペテルブルグ) ( ULLI / LED ) - ロシア サンクトペテルブルク
飛行場実況気象(Metar)
観測時間06/29 04:30 MSK (06/29 01:30 UTC)
風向・風速静穏 0m/s
視程10km以上
天気現象
なし
気温9℃
湿度81%
気圧1013hPa
METARULLI 290130Z 00000MPS CAVOK 09/06 Q1013 R28R/090060 NOSIG
過去の天気等 Google飛行場航空写真 Wunderground天気予報

過去48時間のMETAR

飛行場予報(TAF)
発表時間: 6/29 01:59 MSK (6/28 22:59 UTC)
予報対象時間: 29日3時 MSK ~ 30日3時 MSK
風向・風速西 3m/s 瞬間風速 8m/s
視程5,000m
天気現象もや
全天の8割程度の雲 雲底高度 610m
29日3時 MSK ~ 29日8時 MSK に一時的に
視程3,100m
天気現象もや
全天の4割程度の雲 雲底高度 340m
29日9時 MSK ~ 29日11時 MSK に徐々に
風向・風速東南東 3m/s 瞬間風速 8m/s
視程10km以上
天気現象運行に影響にある天気現象が終了
29日11時 MSK ~ 29日21時 MSK に一時的に
風向・風速東 3m/s 瞬間風速 9m/s
29日21時 MSK ~ 30日3時 MSK に一時的に
風向・風速東 5m/s 瞬間風速 11m/s
視程3,100m
天気現象弱いしゅう雨
全天の8割程度の雲 雲底高度 340m
全天の8割程度の積乱雲 雲底高度 460m
TAF ULLI 282259Z 2900/2924 28003G08MPS 5000 BR BKN020
TEMPO 2900/2905 3100 BR SCT011
BECMG 2906/2908 12003G08MPS 9999 NSW
TEMPO 2908/2918 09003G09MPS
TEMPO 2918/2924 09005G11MPS 3100 -SHRA BKN011 BKN015CB